Time;durP1;ratioP1;P1;durP2;ratioP2;P2;SDS_P1;SDS_P2;PMS_P1;PMS_P2;Temp;Humidity;BMP_temperature;BMP_pressure;BME280_temperature;BME280_humidity;BME280_pressure;Samples;Min_cycle;Max_cycle;Signal;HPM_P1;HPM_P2
2022/05/04 00:00:19;;;;;;;9.38;3.97;;;11.50;77.50;;;;;;4974316;28;94238;-71
2022/05/04 00:02:46;;;;;;;12.38;3.67;;;11.50;77.50;;;;;;4956801;28;95432;-71
2022/05/04 00:05:13;;;;;;;7.53;3.30;;;11.50;77.60;;;;;;4974589;28;92410;-71
2022/05/04 00:07:40;;;;;;;8.68;3.05;;;11.50;77.30;;;;;;4975042;28;93175;-71
2022/05/04 00:10:08;;;;;;;11.50;4.10;;;11.50;77.20;;;;;;4975482;28;93139;-72
2022/05/04 00:12:35;;;;;;;12.25;3.60;;;11.50;77.40;;;;;;4957740;28;95610;-71
2022/05/04 00:15:03;;;;;;;8.82;3.60;;;11.50;77.60;;;;;;4957893;28;92576;-71
2022/05/04 00:17:30;;;;;;;8.65;3.53;;;11.50;77.80;;;;;;4975456;28;92560;-71
2022/05/04 00:19:57;;;;;;;7.35;2.95;;;11.50;77.60;;;;;;4974261;28;93779;-72
2022/05/04 00:22:26;;;;;;;9.05;3.38;;;11.50;77.60;;;;;;4973704;28;107636;-71
2022/05/04 00:24:53;;;;;;;8.32;3.40;;;11.50;77.40;;;;;;4958197;28;92449;-71
2022/05/04 00:27:20;;;;;;;8.93;3.47;;;11.50;77.40;;;;;;4974287;28;94848;-72
2022/05/04 00:29:47;;;;;;;7.10;3.03;;;11.50;77.40;;;;;;4975682;28;92554;-71
2022/05/04 00:32:17;;;;;;;6.97;3.13;;;11.50;77.60;;;;;;4957509;28;95322;-72
2022/05/04 00:34:44;;;;;;;12.75;3.42;;;11.40;77.40;;;;;;4975817;28;93281;-71
2022/05/04 00:37:11;;;;;;;11.55;4.13;;;11.40;77.40;;;;;;4957779;28;92547;-72
2022/05/04 00:39:38;;;;;;;10.57;4.13;;;11.40;77.40;;;;;;4973511;28;95831;-72
2022/05/04 00:42:15;;;;;;;10.88;3.55;;;11.40;77.40;;;;;;4973903;28;93180;-71
2022/05/04 00:44:44;;;;;;;11.45;3.67;;;11.40;77.40;;;;;;4976238;28;91738;-72
2022/05/04 00:47:11;;;;;;;8.50;3.50;;;11.40;77.60;;;;;;4975198;28;92461;-71
2022/05/04 00:49:40;;;;;;;7.97;3.58;;;11.40;77.50;;;;;;4975391;28;93066;-71
2022/05/04 00:52:08;;;;;;;7.68;3.35;;;11.40;77.40;;;;;;4972609;28;94881;-71
2022/05/04 00:54:36;;;;;;;9.45;3.10;;;11.40;77.30;;;;;;4973894;28;92398;-71
2022/05/04 00:57:04;;;;;;;14.77;3.60;;;11.40;77.30;;;;;;4957478;28;92564;-71
2022/05/04 00:59:32;;;;;;;9.60;3.55;;;11.40;77.30;;;;;;4957173;28;96032;-72
2022/05/04 01:01:59;;;;;;;10.13;3.70;;;11.40;77.40;;;;;;4974969;28;93014;-71
2022/05/04 01:04:27;;;;;;;11.73;3.80;;;11.40;77.90;;;;;;4976708;28;92922;-71
2022/05/04 01:06:54;;;;;;;9.43;3.58;;;11.40;78.10;;;;;;4976998;28;92898;-71
2022/05/04 01:09:20;;;;;;;10.15;3.47;;;11.40;78.10;;;;;;4960956;28;95142;-72
2022/05/04 01:11:48;;;;;;;6.75;3.13;;;11.40;78.00;;;;;;4961002;28;92665;-72
2022/05/04 01:14:16;;;;;;;6.28;2.97;;;11.40;77.90;;;;;;4978522;28;92391;-72
2022/05/04 01:16:46;;;;;;;8.63;3.55;;;11.40;77.70;;;;;;4975642;28;94951;-71
2022/05/04 01:19:13;;;;;;;6.43;3.47;;;11.40;77.60;;;;;;4959648;28;95869;-71
2022/05/04 01:21:40;;;;;;;9.52;3.03;;;11.40;77.70;;;;;;4978478;28;95041;-71
2022/05/04 01:24:09;;;;;;;9.25;3.70;;;11.40;77.70;;;;;;4978219;28;92369;-71
2022/05/04 01:26:36;;;;;;;13.18;4.10;;;11.40;77.60;;;;;;4978293;28;92493;-72
2022/05/04 01:29:04;;;;;;;7.65;3.40;;;11.30;77.70;;;;;;4978024;28;93281;-72
2022/05/04 01:31:31;;;;;;;6.78;2.92;;;11.30;77.30;;;;;;4976874;28;93049;-71
2022/05/04 01:34:00;;;;;;;8.52;3.42;;;11.30;77.40;;;;;;4978317;28;91812;-71
2022/05/04 01:36:27;;;;;;;6.78;2.92;;;11.20;77.50;;;;;;4978317;28;93246;-71
2022/05/04 01:38:54;;;;;;;7.38;3.25;;;11.20;77.60;;;;;;4960661;28;93177;-71
2022/05/04 01:44:07;;;;;;;8.60;3.22;;;11.10;77.60;;;;;;4960313;28;92463;-71
2022/05/04 01:46:35;;;;;;;7.15;2.80;;;11.10;77.30;;;;;;4978035;28;92438;-71
2022/05/04 01:49:02;;;;;;;7.03;2.50;;;11.00;77.00;;;;;;4976158;28;95873;-72
2022/05/04 01:51:28;;;;;;;9.35;3.80;;;11.00;77.70;;;;;;4976480;28;95514;-71
2022/05/04 01:53:55;;;;;;;6.97;3.13;;;10.90;77.00;;;;;;4960428;28;92494;-71
2022/05/04 01:56:22;;;;;;;9.98;3.25;;;10.80;77.40;;;;;;4976229;28;92613;-71
2022/05/04 01:58:49;;;;;;;7.38;2.95;;;10.70;77.70;;;;;;4976461;28;94979;-71
2022/05/04 02:01:16;;;;;;;8.55;2.95;;;10.70;78.20;;;;;;4976048;28;94147;-71
2022/05/04 02:03:43;;;;;;;7.65;3.10;;;10.70;78.30;;;;;;4977929;28;92370;-71
2022/05/04 02:06:11;;;;;;;9.20;3.13;;;10.70;77.80;;;;;;4958929;28;95022;-71
2022/05/04 02:08:38;;;;;;;9.52;3.13;;;10.70;78.00;;;;;;4976003;28;96284;-71
2022/05/04 02:11:05;;;;;;;7.05;3.00;;;10.70;77.80;;;;;;4977247;28;93027;-71
2022/05/04 02:13:32;;;;;;;6.07;3.03;;;10.70;78.20;;;;;;4976134;28;92543;-71
2022/05/04 02:15:59;;;;;;;5.65;3.03;;;10.70;78.20;;;;;;4976100;28;93026;-72
2022/05/04 02:18:26;;;;;;;7.63;2.65;;;10.70;78.10;;;;;;4975273;28;93347;-71
2022/05/04 02:20:53;;;;;;;6.15;2.80;;;10.80;78.00;;;;;;4959399;28;94204;-72
2022/05/04 02:23:20;;;;;;;8.18;3.22;;;10.80;77.90;;;;;;4960313;28;91724;-71
2022/05/04 02:25:47;;;;;;;10.18;2.85;;;10.80;77.80;;;;;;4959561;28;94060;-72
2022/05/04 02:28:14;;;;;;;12.65;3.67;;;10.90;77.70;;;;;;4976731;28;93387;-71
2022/05/04 02:30:43;;;;;;;6.70;2.95;;;10.90;77.70;;;;;;4974582;28;94904;-71
2022/05/04 02:33:11;;;;;;;10.43;3.20;;;10.90;77.70;;;;;;4959446;28;92565;-71
2022/05/04 02:38:23;;;;;;;8.82;2.50;;;10.90;77.30;;;;;;4958889;28;95700;-72
2022/05/04 02:40:50;;;;;;;9.27;2.95;;;10.90;77.20;;;;;;4976773;28;92726;-72
2022/05/04 02:43:17;;;;;;;7.88;2.78;;;11.00;77.50;;;;;;4975608;28;92522;-71
2022/05/04 02:45:44;;;;;;;5.75;3.03;;;11.00;77.90;;;;;;4977118;28;92455;-71
2022/05/04 02:48:11;;;;;;;10.00;2.88;;;11.00;77.90;;;;;;4976881;28;92352;-71
2022/05/04 02:50:38;;;;;;;6.20;3.20;;;11.00;77.90;;;;;;4976912;28;92469;-71
2022/05/04 02:53:06;;;;;;;8.70;3.22;;;11.00;78.00;;;;;;4959057;28;92834;-71
2022/05/04 02:55:33;;;;;;;11.43;2.90;;;11.00;78.50;;;;;;4975599;28;94843;-71
2022/05/04 02:58:01;;;;;;;7.85;2.58;;;11.00;78.60;;;;;;4976641;28;93336;-71
2022/05/04 03:00:28;;;;;;;6.82;3.53;;;11.00;78.80;;;;;;4975239;28;93669;-71
2022/05/04 03:02:55;;;;;;;6.07;3.08;;;11.00;79.30;;;;;;4976586;28;92545;-71
2022/05/04 03:05:22;;;;;;;10.00;3.65;;;11.00;79.70;;;;;;4974502;28;93864;-71
2022/05/04 03:07:50;;;;;;;14.82;3.33;;;11.00;79.90;;;;;;4976427;28;93097;-72
2022/05/04 03:10:17;;;;;;;9.50;3.67;;;11.00;80.00;;;;;;4976398;28;93067;-71
2022/05/04 03:12:44;;;;;;;7.68;3.45;;;11.00;80.10;;;;;;4959512;28;91807;-71
2022/05/04 03:15:11;;;;;;;10.25;3.42;;;11.00;80.20;;;;;;4976469;28;92481;-71
2022/05/04 03:17:38;;;;;;;6.95;3.35;;;10.90;80.20;;;;;;4976107;28;93132;-72
2022/05/04 03:20:06;;;;;;;9.30;3.83;;;10.90;80.50;;;;;;4975195;28;94919;-71
2022/05/04 03:22:33;;;;;;;7.28;3.28;;;10.90;80.80;;;;;;4958524;28;92534;-71
2022/05/04 03:25:00;;;;;;;13.98;3.47;;;11.00;80.90;;;;;;4975004;28;92450;-71
2022/05/04 03:27:27;;;;;;;7.03;3.42;;;11.00;80.60;;;;;;4973987;28;95705;-72
2022/05/04 03:29:58;;;;;;;5.75;2.67;;;11.00;80.50;;;;;;4958548;28;94199;-72
2022/05/04 03:32:25;;;;;;;11.10;3.10;;;10.90;80.40;;;;;;4958897;28;92467;-71
2022/05/04 03:34:52;;;;;;;6.78;3.25;;;10.90;80.30;;;;;;4975004;28;92469;-71
2022/05/04 03:37:19;;;;;;;7.35;2.78;;;10.90;80.40;;;;;;4958895;28;91838;-72
2022/05/04 03:39:46;;;;;;;9.90;3.40;;;10.90;80.50;;;;;;4958709;28;92511;-71
2022/05/04 03:42:15;;;;;;;8.23;3.55;;;10.90;80.50;;;;;;4974514;28;92530;-71
2022/05/04 03:44:51;;;;;;;8.77;3.28;;;10.90;80.40;;;;;;4975283;28;94805;-72
2022/05/04 03:47:19;;;;;;;8.57;4.20;;;10.90;80.70;;;;;;4957648;28;96099;-71
2022/05/04 03:49:46;;;;;;;8.48;3.05;;;10.90;80.50;;;;;;4975590;28;100969;-71
2022/05/04 03:52:14;;;;;;;6.88;3.20;;;10.90;80.50;;;;;;4958377;28;92461;-71
2022/05/04 03:54:41;;;;;;;7.97;3.03;;;10.90;80.50;;;;;;4976183;28;92450;-71
2022/05/04 03:57:08;;;;;;;11.45;3.15;;;10.90;80.30;;;;;;4958131;28;95595;-71
2022/05/04 03:59:35;;;;;;;8.85;3.40;;;10.90;80.40;;;;;;4958027;28;93009;-71
2022/05/04 04:02:02;;;;;;;11.43;3.13;;;10.90;80.60;;;;;;4974741;28;91804;-71
2022/05/04 04:04:29;;;;;;;6.85;2.90;;;10.90;81.00;;;;;;4975786;28;92443;-71
2022/05/04 04:06:56;;;;;;;11.48;3.17;;;10.80;81.50;;;;;;4957793;28;94293;-71
2022/05/04 04:09:22;;;;;;;10.65;3.38;;;10.90;82.40;;;;;;4974499;28;94880;-71
2022/05/04 04:11:49;;;;;;;12.35;3.38;;;10.90;82.10;;;;;;4958495;28;92564;-71
2022/05/04 04:14:16;;;;;;;6.97;3.30;;;10.90;82.40;;;;;;4974232;28;92694;-71
2022/05/04 04:16:43;;;;;;;6.75;3.05;;;10.90;82.50;;;;;;4975185;28;94808;-71
2022/05/04 04:19:10;;;;;;;6.95;3.50;;;10.90;82.70;;;;;;4958398;28;92944;-71
2022/05/04 04:21:53;;;;;;;7.90;3.53;;;10.90;82.60;;;;;;4973919;28;92501;-71
2022/05/04 04:24:21;;;;;;;8.45;3.15;;;10.90;82.20;;;;;;4974103;28;92453;-71
2022/05/04 04:26:48;;;;;;;7.88;3.30;;;10.90;81.90;;;;;;4974656;28;91731;-72
2022/05/04 04:29:16;;;;;;;7.50;3.15;;;10.90;81.70;;;;;;4958037;28;92748;-72
2022/05/04 04:31:43;;;;;;;8.88;3.53;;;10.90;82.20;;;;;;4974369;28;92537;-71
2022/05/04 04:34:10;;;;;;;10.32;3.33;;;10.90;81.60;;;;;;4974434;28;94865;-71
2022/05/04 04:36:40;;;;;;;6.35;2.78;;;10.90;81.70;;;;;;4957341;28;96040;-71
2022/05/04 04:39:07;;;;;;;7.28;3.03;;;11.00;81.60;;;;;;4974752;28;98043;-71
2022/05/04 04:41:34;;;;;;;8.85;3.15;;;11.00;81.60;;;;;;4977257;28;92524;-71
2022/05/04 04:44:01;;;;;;;8.82;2.95;;;11.00;81.70;;;;;;4961192;28;92565;-71
2022/05/04 04:46:29;;;;;;;8.05;2.97;;;11.00;81.90;;;;;;4978598;28;93252;-71
2022/05/04 04:48:58;;;;;;;7.03;2.85;;;11.10;82.60;;;;;;4978872;28;93765;-71
2022/05/04 04:51:24;;;;;;;7.55;3.40;;;11.10;81.80;;;;;;4977603;28;94146;-71
2022/05/04 04:53:51;;;;;;;9.93;3.50;;;11.10;81.40;;;;;;4978947;28;92573;-71
2022/05/04 04:56:18;;;;;;;11.32;3.72;;;11.10;81.40;;;;;;4978567;28;93183;-72
2022/05/04 04:58:45;;;;;;;6.93;3.00;;;11.10;81.40;;;;;;4977153;28;94921;-72
2022/05/04 05:01:12;;;;;;;5.53;2.92;;;11.20;81.30;;;;;;4976842;28;94753;-71
2022/05/04 05:03:39;;;;;;;6.07;2.88;;;11.20;81.40;;;;;;4977153;28;92475;-72
2022/05/04 05:06:06;;;;;;;6.47;2.95;;;11.30;81.20;;;;;;4977313;28;92544;-71
2022/05/04 05:08:33;;;;;;;11.15;3.08;;;11.30;81.10;;;;;;4978443;28;93402;-71
2022/05/04 05:11:00;;;;;;;11.38;3.88;;;11.30;80.90;;;;;;4960831;28;92541;-71
2022/05/04 05:13:27;;;;;;;10.63;3.25;;;11.40;80.90;;;;;;4961043;28;92533;-71
2022/05/04 05:16:09;;;;;;;10.13;3.60;;;11.40;80.90;;;;;;4961275;28;92506;-72
2022/05/04 05:18:37;;;;;;;8.45;3.35;;;11.40;80.60;;;;;;4977699;28;92526;-72
2022/05/04 05:21:04;;;;;;;8.05;2.80;;;11.50;80.30;;;;;;4961086;28;92463;-71
2022/05/04 05:23:32;;;;;;;6.38;3.05;;;11.60;80.20;;;;;;4975653;28;94932;-72
2022/05/04 05:25:59;;;;;;;13.57;3.90;;;11.60;80.00;;;;;;4976674;28;93269;-72
2022/05/04 05:28:26;;;;;;;7.45;3.40;;;11.70;79.80;;;;;;4960436;28;92965;-72
2022/05/04 05:30:53;;;;;;;7.80;3.15;;;11.70;79.60;;;;;;4960589;28;92525;-72
2022/05/04 05:33:20;;;;;;;6.95;3.25;;;11.80;79.40;;;;;;4978286;28;92375;-72
2022/05/04 05:35:47;;;;;;;7.97;3.53;;;11.90;79.30;;;;;;4976656;28;93253;-72
2022/05/04 05:38:15;;;;;;;8.88;4.00;;;11.90;79.10;;;;;;4976228;28;108972;-72
2022/05/04 05:40:42;;;;;;;8.02;3.15;;;12.00;79.00;;;;;;4960407;28;92515;-71
2022/05/04 05:43:09;;;;;;;9.05;2.95;;;12.10;79.10;;;;;;4976805;28;92559;-72
2022/05/04 05:45:36;;;;;;;12.00;3.45;;;12.20;78.90;;;;;;4976309;28;93174;-72
2022/05/04 05:48:03;;;;;;;8.80;3.78;;;12.20;77.80;;;;;;4976733;28;94772;-72
2022/05/04 05:50:33;;;;;;;7.63;3.45;;;12.30;77.50;;;;;;4977433;28;92563;-72
2022/05/04 05:53:02;;;;;;;7.05;3.08;;;12.40;77.10;;;;;;4978337;28;92376;-72
2022/05/04 05:55:30;;;;;;;6.43;3.03;;;12.50;76.60;;;;;;4977442;28;92504;-72
2022/05/04 05:57:58;;;;;;;10.05;3.08;;;12.60;76.30;;;;;;4976208;28;95542;-72
2022/05/04 06:00:26;;;;;;;8.38;2.92;;;12.70;75.40;;;;;;4977635;28;92393;-72
2022/05/04 06:02:53;;;;;;;7.55;3.00;;;12.70;74.60;;;;;;4960001;28;92477;-72
2022/05/04 06:05:20;;;;;;;6.55;2.35;;;12.80;74.20;;;;;;4977901;28;92495;-72
2022/05/04 06:07:48;;;;;;;6.40;2.55;;;12.90;73.20;;;;;;4975777;28;93598;-72
2022/05/04 06:10:15;;;;;;;8.50;2.22;;;12.80;72.00;;;;;;4976429;28;92672;-72
2022/05/04 06:12:43;;;;;;;8.27;2.40;;;12.80;72.20;;;;;;4976108;28;95185;-72
2022/05/04 06:15:11;;;;;;;8.57;2.80;;;12.80;72.40;;;;;;4976994;28;93178;-72
2022/05/04 06:17:38;;;;;;;9.45;2.85;;;12.80;71.10;;;;;;4976106;28;93087;-72
2022/05/04 06:20:07;;;;;;;5.80;2.20;;;12.90;71.30;;;;;;4959862;28;92379;-72
2022/05/04 06:22:34;;;;;;;5.10;2.35;;;13.00;71.20;;;;;;4975801;28;92582;-72
2022/05/04 06:25:01;;;;;;;7.80;3.00;;;13.20;71.20;;;;;;4975739;28;95708;-72
2022/05/04 06:27:29;;;;;;;6.88;2.92;;;13.40;70.50;;;;;;4977202;28;92838;-72
2022/05/04 06:35:27;;;;;;;9.27;2.33;;;13.80;68.80;;;;;;4975980;28;93045;-72
2022/05/04 06:37:54;;;;;;;7.70;3.10;;;13.80;67.90;;;;;;4975509;28;94761;-73
2022/05/04 06:40:21;;;;;;;5.53;2.83;;;14.00;67.40;;;;;;4959296;28;92862;-73
2022/05/04 06:42:48;;;;;;;5.43;2.83;;;14.10;67.10;;;;;;4959066;28;92599;-72
2022/05/04 06:45:15;;;;;;;4.45;2.30;;;14.30;66.50;;;;;;4976966;28;93382;-73
2022/05/04 06:47:42;;;;;;;8.60;3.05;;;14.40;65.70;;;;;;4976494;28;93036;-73
2022/05/04 06:50:10;;;;;;;5.03;2.15;;;14.50;65.10;;;;;;4975658;28;92381;-72
2022/05/04 06:52:37;;;;;;;4.90;2.20;;;14.60;64.40;;;;;;4976741;28;92479;-73
2022/05/04 06:55:05;;;;;;;5.53;2.50;;;14.60;63.80;;;;;;4975297;28;94268;-73
2022/05/04 06:57:32;;;;;;;7.35;2.90;;;14.80;62.90;;;;;;4976466;28;92487;-72
2022/05/04 06:59:59;;;;;;;8.43;2.40;;;14.70;62.60;;;;;;4975088;28;92486;-72
2022/05/04 07:02:26;;;;;;;6.15;2.15;;;14.50;62.10;;;;;;4973061;28;95104;-72
2022/05/04 07:04:53;;;;;;;7.07;2.70;;;14.50;62.30;;;;;;4958474;28;96172;-72
2022/05/04 07:07:25;;;;;;;4.85;2.25;;;14.60;62.80;;;;;;4975492;28;92991;-72
2022/05/04 07:09:52;;;;;;;6.55;2.35;;;14.80;62.40;;;;;;4976300;28;93684;-72
2022/05/04 07:12:20;;;;;;;8.30;2.60;;;14.90;61.80;;;;;;4975261;28;92592;-72
2022/05/04 07:14:47;;;;;;;6.47;2.13;;;15.00;61.50;;;;;;4958347;28;95780;-72
2022/05/04 07:17:14;;;;;;;5.82;2.72;;;15.10;60.80;;;;;;4958921;28;93036;-73
2022/05/04 07:19:41;;;;;;;6.40;2.40;;;15.30;60.90;;;;;;4975428;28;91641;-72
2022/05/04 07:22:08;;;;;;;8.07;2.80;;;15.40;60.90;;;;;;4958408;28;92514;-72
2022/05/04 07:24:35;;;;;;;7.35;2.40;;;15.60;59.70;;;;;;4958450;28;94958;-73
2022/05/04 07:27:02;;;;;;;8.18;2.38;;;15.70;59.50;;;;;;4940921;28;95395;-72
2022/05/04 07:29:28;;;;;;;6.78;3.22;;;15.60;58.30;;;;;;4976447;28;92344;-72
2022/05/04 07:31:55;;;;;;;8.82;2.80;;;15.50;58.60;;;;;;4976202;28;92406;-72
2022/05/04 07:34:22;;;;;;;4.82;2.22;;;15.40;57.80;;;;;;4974706;28;95885;-72
2022/05/04 07:36:49;;;;;;;8.40;2.83;;;15.30;58.40;;;;;;4974443;28;93071;-72
2022/05/04 07:42:21;;;;;;;10.32;2.67;;;15.50;58.60;;;;;;4976183;28;92615;-72
2022/05/04 07:44:50;;;;;;;5.80;2.83;;;15.40;58.10;;;;;;4976271;28;92436;-72
2022/05/04 07:47:22;;;;;;;;;;;15.40;57.50;;;;;;4976555;28;92904;-72
2022/05/04 07:49:49;;;;;;;5.25;3.90;;;15.40;59.10;;;;;;4977171;28;92372;-72
2022/05/04 07:52:16;;;;;;;6.78;2.85;;;15.90;58.70;;;;;;4974912;28;94888;-72
2022/05/04 07:54:43;;;;;;;4.18;2.88;;;16.00;56.80;;;;;;4974369;28;94161;-73
2022/05/04 07:57:10;;;;;;;9.40;2.70;;;16.30;57.20;;;;;;4958456;28;93656;-72
2022/05/04 07:59:37;;;;;;;4.63;4.05;;;16.60;56.60;;;;;;4974254;28;92460;-71
2022/05/04 08:04:51;;;;;;;7.35;4.30;;;17.40;54.90;;;;;;4975771;28;93452;-71
2022/05/04 08:07:19;;;;;;;6.78;3.53;;;18.00;54.40;;;;;;4975741;28;93100;-70
2022/05/04 08:09:46;;;;;;;7.60;4.20;;;19.00;51.70;;;;;;4976292;28;91760;-71
2022/05/04 08:12:13;;;;;;;15.77;4.07;;;20.10;48.80;;;;;;4974441;28;92490;-71
2022/05/04 08:14:40;;;;;;;8.40;3.20;;;21.10;46.10;;;;;;4957498;28;94809;-71
2022/05/04 08:17:07;;;;;;;5.63;4.35;;;22.10;43.30;;;;;;4956184;28;94946;-71
2022/05/04 08:19:35;;;;;;;5.55;3.20;;;23.20;41.40;;;;;;4974687;28;92579;-71
2022/05/04 08:22:02;;;;;;;5.13;2.75;;;24.20;39.10;;;;;;4957967;28;92458;-71
2022/05/04 08:24:29;;;;;;;5.18;3.70;;;25.10;35.90;;;;;;4957846;28;94277;-71
2022/05/04 08:26:56;;;;;;;5.97;3.08;;;25.60;34.40;;;;;;4975043;28;92928;-71
2022/05/04 08:29:23;;;;;;;6.60;3.53;;;25.50;32.60;;;;;;4957881;28;92544;-71
2022/05/04 08:31:50;;;;;;;4.40;2.42;;;25.30;33.00;;;;;;4974175;28;92541;-71
2022/05/04 08:34:17;;;;;;;4.78;2.40;;;24.90;32.80;;;;;;4975645;28;92542;-71
2022/05/04 08:36:44;;;;;;;7.30;3.47;;;24.70;32.90;;;;;;4975207;28;92414;-71
2022/05/04 08:39:10;;;;;;;6.43;3.75;;;23.90;34.00;;;;;;4973981;28;92457;-71
2022/05/04 08:41:42;;;;;;;7.43;3.45;;;23.00;34.90;;;;;;4972528;28;95718;-71
2022/05/04 08:44:11;;;;;;;5.20;2.50;;;22.70;35.50;;;;;;4973766;28;93299;-71
2022/05/04 08:46:40;;;;;;;7.00;2.83;;;22.10;36.70;;;;;;4974851;28;95829;-71
2022/05/04 08:49:08;;;;;;;8.20;3.72;;;21.30;37.80;;;;;;4975226;28;92412;-71
2022/05/04 08:51:36;;;;;;;6.88;3.55;;;20.50;38.80;;;;;;4975376;28;92438;-71
2022/05/04 08:54:07;;;;;;;6.40;2.53;;;20.00;40.50;;;;;;4973566;28;93254;-71
2022/05/04 08:56:35;;;;;;;5.15;3.05;;;19.60;41.60;;;;;;4975102;28;92840;-71
2022/05/04 08:59:07;;;;;;;4.88;2.53;;;19.30;41.80;;;;;;4975537;28;91932;-71
2022/05/04 09:01:37;;;;;;;7.35;3.10;;;19.20;42.20;;;;;;4973781;28;92475;-71
2022/05/04 09:04:04;;;;;;;9.80;3.58;;;18.90;43.10;;;;;;4975054;28;93385;-71
2022/05/04 09:06:33;;;;;;;6.43;3.00;;;18.50;43.50;;;;;;4972107;28;102862;-72
2022/05/04 09:09:13;;;;;;;7.20;3.30;;;18.40;44.10;;;;;;4973573;28;92450;-72
2022/05/04 09:11:42;;;;;;;7.05;3.17;;;18.20;44.40;;;;;;4973668;28;92494;-71
2022/05/04 09:14:15;;;;;;;7.65;4.65;;;18.20;44.50;;;;;;4974375;28;105524;-71
2022/05/04 09:16:42;;;;;;;5.55;2.75;;;18.30;44.40;;;;;;4957070;28;94217;-71
2022/05/04 09:19:14;;;;;;;7.47;3.05;;;18.10;44.70;;;;;;4957118;28;92534;-71
2022/05/04 09:21:42;;;;;;;7.38;2.67;;;18.00;45.40;;;;;;4973898;28;92879;-70
2022/05/04 09:24:09;;;;;;;6.30;4.35;;;18.10;46.20;;;;;;4975030;28;92541;-71
2022/05/04 09:26:41;;;;;;;9.65;3.85;;;18.20;45.70;;;;;;4976349;28;93341;-71
2022/05/04 09:29:11;;;;;;;9.02;2.80;;;18.40;45.60;;;;;;4978097;28;92350;-71
2022/05/04 09:31:45;;;;;;;6.50;2.45;;;18.40;45.30;;;;;;4959444;28;94893;-71
2022/05/04 09:34:13;;;;;;;8.27;4.38;;;18.30;44.90;;;;;;4977923;28;93300;-70
2022/05/04 09:45:16;;;;;;;6.72;3.28;;;17.50;47.20;;;;;;4977689;28;93314;-71
2022/05/04 09:47:47;;;;;;;5.30;3.40;;;17.60;47.50;;;;;;4977996;28;92986;-71
2022/05/04 09:50:16;;;;;;;9.85;3.40;;;17.60;47.10;;;;;;4978192;28;91828;-71
2022/05/04 09:52:44;;;;;;;8.27;2.53;;;17.50;48.10;;;;;;4960124;28;92496;-70
2022/05/04 09:55:24;;;;;;;6.85;3.15;;;17.20;48.20;;;;;;4977404;28;93086;-71
2022/05/04 09:57:55;;;;;;;6.65;2.80;;;17.00;48.90;;;;;;4976567;28;94836;-71
2022/05/04 10:00:25;;;;;;;7.35;2.70;;;16.70;48.90;;;;;;4977768;28;92529;-71
2022/05/04 10:02:53;;;;;;;8.27;2.97;;;16.50;49.30;;;;;;4959420;28;92530;-71
2022/05/04 10:05:21;;;;;;;5.00;2.70;;;16.50;49.20;;;;;;4976009;28;93189;-71
2022/05/04 10:07:50;;;;;;;5.80;3.30;;;16.40;49.00;;;;;;4976019;28;95530;-71
2022/05/04 10:10:20;;;;;;;7.53;3.35;;;16.40;49.80;;;;;;4977389;28;92387;-73
2022/05/04 10:12:47;;;;;;;7.57;2.92;;;16.40;49.60;;;;;;4977299;28;92458;-72
2022/05/04 10:15:19;;;;;;;6.85;2.80;;;16.30;49.80;;;;;;4976971;28;92436;-72
2022/05/04 10:17:53;;;;;;;18.83;4.38;;;16.30;50.00;;;;;;4959444;28;92548;-72
2022/05/04 10:20:27;;;;;;;8.35;3.25;;;16.10;52.00;;;;;;4977193;28;92427;-72
2022/05/04 10:23:06;;;;;;;7.60;3.40;;;16.00;51.50;;;;;;4976351;28;94813;-73
2022/05/04 10:25:34;;;;;;;6.78;3.00;;;15.90;51.60;;;;;;4976782;28;93275;-73
2022/05/04 10:28:11;;;;;;;7.25;3.35;;;15.90;51.50;;;;;;4976906;28;93072;-72
2022/05/04 10:30:59;;;;;;;5.90;2.78;;;16.20;51.80;;;;;;4959878;28;92492;-70
2022/05/04 10:33:34;;;;;;;7.65;2.95;;;16.40;51.00;;;;;;4959116;28;92480;-71
2022/05/04 10:36:27;;;;;;;5.97;3.10;;;16.40;51.30;;;;;;4976905;28;93357;-71
2022/05/04 10:38:57;;;;;;;6.25;3.42;;;16.10;51.00;;;;;;4976986;28;92784;-72
2022/05/04 10:41:37;;;;;;;5.90;3.08;;;16.00;52.00;;;;;;4959601;28;91785;-73
2022/05/04 10:44:11;;;;;;;6.72;3.47;;;16.10;52.40;;;;;;4975511;28;92417;-73
2022/05/04 10:46:40;;;;;;;10.93;4.32;;;15.90;50.60;;;;;;4976728;28;93034;-72
2022/05/04 10:49:11;;;;;;;7.88;3.85;;;15.90;52.10;;;;;;4957512;28;94958;-72
2022/05/04 10:51:39;;;;;;;9.75;3.22;;;16.00;51.10;;;;;;4959142;28;92440;-72
2022/05/04 10:54:13;;;;;;;3.95;2.72;;;16.30;51.10;;;;;;4975220;28;104220;-73
2022/05/04 10:56:45;;;;;;;7.50;3.35;;;16.30;49.70;;;;;;4976661;28;92646;-73
2022/05/04 10:59:32;;;;;;;8.48;3.90;;;16.40;49.30;;;;;;4976756;28;93062;-73
2022/05/04 11:02:04;;;;;;;9.80;4.20;;;16.50;49.60;;;;;;4974955;28;92433;-73
2022/05/04 11:04:33;;;;;;;8.82;3.50;;;16.40;49.50;;;;;;4976620;28;92577;-73
2022/05/04 11:07:00;;;;;;;6.70;3.45;;;16.60;49.40;;;;;;4976540;28;92514;-73
2022/05/04 11:09:32;;;;;;;9.48;3.70;;;16.70;50.70;;;;;;4974326;28;105171;-73
2022/05/04 11:12:04;;;;;;;6.43;3.20;;;16.60;48.90;;;;;;4959451;28;92417;-73
2022/05/04 11:14:34;;;;;;;6.45;3.45;;;16.60;50.00;;;;;;4957500;28;95239;-73
2022/05/04 11:17:02;;;;;;;6.93;3.53;;;16.60;50.00;;;;;;4957987;28;96274;-73
2022/05/04 11:19:32;;;;;;;7.15;3.60;;;16.60;49.50;;;;;;4976049;28;92880;-73
2022/05/04 11:22:00;;;;;;;6.50;3.60;;;16.70;50.20;;;;;;4975895;28;92770;-72
2022/05/04 11:24:28;;;;;;;12.00;4.05;;;16.90;49.10;;;;;;4958003;28;92552;-73
2022/05/04 11:26:56;;;;;;;7.68;3.40;;;17.10;48.50;;;;;;4958650;28;93281;-73
2022/05/04 11:29:26;;;;;;;7.88;3.92;;;17.20;49.10;;;;;;4974536;28;95067;-72
2022/05/04 11:31:56;;;;;;;5.28;4.35;;;17.50;48.50;;;;;;4975107;28;91885;-72
2022/05/04 11:34:37;;;;;;;7.97;3.80;;;17.50;48.20;;;;;;4976030;28;92493;-73
2022/05/04 11:37:11;;;;;;;6.80;3.78;;;17.50;48.80;;;;;;4975976;28;92464;-72
2022/05/04 11:39:39;;;;;;;7.32;3.92;;;17.60;48.50;;;;;;4973636;28;94974;-70
2022/05/04 11:42:08;;;;;;;6.57;3.88;;;17.40;48.40;;;;;;4958454;28;92553;-70
2022/05/04 11:44:37;;;;;;;8.05;3.80;;;17.10;49.20;;;;;;4958069;28;92485;-70
2022/05/04 11:47:06;;;;;;;10.43;4.78;;;17.00;49.80;;;;;;4974337;28;94171;-71
2022/05/04 11:49:36;;;;;;;6.10;3.22;;;16.90;49.80;;;;;;4957749;28;92492;-70
2022/05/04 11:52:05;;;;;;;8.13;4.00;;;17.00;49.80;;;;;;4975880;28;92585;-70
2022/05/04 11:54:32;;;;;;;13.60;3.85;;;17.10;50.10;;;;;;4973985;28;92572;-70
2022/05/04 11:56:59;;;;;;;4.85;4.22;;;17.30;49.30;;;;;;4975702;28;112422;-73
2022/05/04 11:59:31;;;;;;;8.10;3.72;;;17.50;49.80;;;;;;4958002;28;92484;-73
2022/05/04 12:01:59;;;;;;;7.82;4.03;;;17.80;48.90;;;;;;4975857;28;92410;-70
2022/05/04 12:04:28;;;;;;;5.38;3.50;;;17.80;48.40;;;;;;4974482;28;95147;-70
2022/05/04 12:06:59;;;;;;;9.45;3.95;;;17.70;49.40;;;;;;4974183;28;94966;-70
2022/05/04 12:09:25;;;;;;;7.63;4.72;;;17.60;49.70;;;;;;4975504;28;92971;-70
2022/05/04 12:11:53;;;;;;;7.60;3.85;;;17.70;49.40;;;;;;4975767;28;92462;-70
2022/05/04 12:14:20;;;;;;;8.52;3.67;;;17.70;49.10;;;;;;4957703;28;92948;-70
2022/05/04 12:16:47;;;;;;;10.48;4.90;;;17.70;49.40;;;;;;4958310;28;93200;-70
2022/05/04 12:19:14;;;;;;;10.93;4.45;;;17.60;49.20;;;;;;4974162;28;93110;-70
2022/05/04 12:21:41;;;;;;;6.55;3.83;;;17.60;50.30;;;;;;4975750;28;91613;-70
2022/05/04 12:24:09;;;;;;;6.00;3.30;;;17.60;51.00;;;;;;4973891;28;92656;-70
2022/05/04 12:26:36;;;;;;;8.13;4.50;;;17.70;50.20;;;;;;4973594;28;95910;-71
2022/05/04 12:34:35;;;;;;;7.05;3.40;;;17.50;49.10;;;;;;4957320;28;92504;-70
2022/05/04 12:37:03;;;;;;;9.35;4.13;;;17.50;49.20;;;;;;4975307;28;92491;-70
2022/05/04 12:39:30;;;;;;;6.38;4.45;;;17.60;48.90;;;;;;4973850;28;93046;-71
2022/05/04 12:42:00;;;;;;;5.68;3.38;;;17.70;48.60;;;;;;4975423;28;92463;-71
2022/05/04 12:44:32;;;;;;;8.35;4.57;;;17.70;49.80;;;;;;4957075;28;92635;-70
2022/05/04 12:47:02;;;;;;;4.65;2.80;;;17.70;48.30;;;;;;4975878;28;93205;-70
2022/05/04 12:49:29;;;;;;;11.40;4.43;;;17.70;48.90;;;;;;4973413;28;95719;-70
2022/05/04 12:51:56;;;;;;;8.00;4.30;;;17.80;50.10;;;;;;4957759;28;93024;-71
2022/05/04 12:54:24;;;;;;;8.02;3.92;;;17.90;47.90;;;;;;4972654;28;95042;-70
2022/05/04 12:56:51;;;;;;;10.60;4.35;;;17.90;47.70;;;;;;4974951;28;93337;-70
2022/05/04 12:59:20;;;;;;;6.15;3.55;;;18.00;48.40;;;;;;4973517;28;95929;-70
2022/05/04 13:01:47;;;;;;;6.97;4.40;;;18.10;48.30;;;;;;4976578;28;92534;-71
2022/05/04 13:04:15;;;;;;;6.38;3.95;;;18.00;48.00;;;;;;4978188;28;92818;-70
2022/05/04 13:06:44;;;;;;;5.63;3.47;;;18.00;48.90;;;;;;4960481;28;96131;-70
2022/05/04 13:09:11;;;;;;;6.88;3.55;;;17.80;47.70;;;;;;4960500;28;95613;-72
2022/05/04 13:11:41;;;;;;;5.80;3.80;;;17.90;49.10;;;;;;4978607;28;91739;-73
2022/05/04 13:14:08;;;;;;;7.07;3.78;;;18.10;49.80;;;;;;4977922;28;92386;-72
2022/05/04 13:16:36;;;;;;;6.28;3.47;;;18.30;48.80;;;;;;4960531;28;93284;-72
2022/05/04 13:19:06;;;;;;;11.77;4.07;;;18.60;47.40;;;;;;4975558;28;95058;-72
2022/05/04 13:21:33;;;;;;;8.52;4.45;;;18.80;46.60;;;;;;4976829;28;92402;-72